Time;durP1;ratioP1;P1;durP2;ratioP2;P2;SDS_P1;SDS_P2;PMS_P1;PMS_P2;Temp;Humidity;BMP_temperature;BMP_pressure;BME280_temperature;BME280_humidity;BME280_pressure;Samples;Min_cycle;Max_cycle;Signal;HPM_P1;HPM_P2
2023/08/13 00:02:06;;;;;;;;;;;;;;;25.02;57.84;101243.50;7397976;19;1575;-47
2023/08/13 00:04:34;;;;;;;;;;;;;;;25.00;57.72;101245.53;7397553;19;1689;-49
2023/08/13 00:07:03;;;;;;;;;;;;;;;24.98;57.83;101229.47;7395412;19;1841;-47
2023/08/13 00:09:31;;;;;;;;;;;;;;;24.97;57.92;101237.75;7397330;19;1484;-47
2023/08/13 00:11:59;;;;;;;;;;;;;;;24.96;57.79;101231.47;7398055;19;1488;-47
2023/08/13 00:14:28;;;;;;;;;;;;;;;24.95;57.98;101232.50;7397396;19;1389;-47
2023/08/13 00:16:56;;;;;;;;;;;;;;;25.01;57.88;101249.94;7398402;19;1453;-47
2023/08/13 00:19:27;;;;;;;;;;;;;;;24.99;57.59;101233.88;7397938;19;1126;-47
2023/08/13 00:21:55;;;;;;;;;;;;;;;24.99;57.78;101242.00;7397920;19;1061;-47
2023/08/13 00:24:23;;;;;;;;;;;;;;;24.99;57.78;101241.16;7396621;19;1273;-47
2023/08/13 00:26:52;;;;;;;;;;;;;;;24.95;57.86;101224.38;7395566;19;1856;-47
2023/08/13 00:29:20;;;;;;;;;;;;;;;24.94;57.68;101222.69;7396961;19;1439;-47
2023/08/13 00:31:48;;;;;;;;;;;;;;;24.99;57.95;101239.28;7397568;19;1290;-47
2023/08/13 00:34:17;;;;;;;;;;;;;;;24.98;57.70;101240.28;7396039;19;1451;-47
2023/08/13 00:36:47;;;;;;;;;;;;;;;24.96;57.85;101242.31;7395645;19;1282;-47
2023/08/13 00:39:16;;;;;;;;;;;;;;;24.97;58.11;101246.72;7396255;19;1263;-47
2023/08/13 00:41:44;;;;;;;;;;;;;;;24.92;57.82;101238.22;7396876;19;1392;-46
2023/08/13 00:44:12;;;;;;;;;;;;;;;24.94;57.86;101248.91;7395553;19;1105;-47
2023/08/13 00:46:41;;;;;;;;;;;;;;;24.94;58.02;101252.44;7394995;19;1853;-47
2023/08/13 00:49:09;;;;;;;;;;;;;;;24.95;57.76;101259.56;7395157;19;1420;-47
2023/08/13 00:51:38;;;;;;;;;;;;;;;24.96;57.90;101263.94;7397043;19;1059;-47
2023/08/13 00:54:10;;;;;;;;;;;;;;;24.92;57.71;101240.94;7396160;19;1721;-47
2023/08/13 00:56:38;;;;;;;;;;;;;;;24.92;57.91;101240.94;7395451;19;1630;-47
2023/08/13 00:59:07;;;;;;;;;;;;;;;24.87;57.86;101243.31;7395636;19;1398;-47
2023/08/13 01:01:35;;;;;;;;;;;;;;;24.94;57.87;101251.59;7395428;19;1465;-47
2023/08/13 01:04:03;;;;;;;;;;;;;;;24.89;58.03;101233.16;7397578;19;1609;-47
2023/08/13 01:06:37;;;;;;;;;;;;;;;24.92;57.88;101254.47;7402237;19;1853;-47
2023/08/13 01:09:13;;;;;;;;;;;;;;;24.92;58.08;101243.66;7404407;19;1574;-47
2023/08/13 01:11:45;;;;;;;;;;;;;;;24.91;58.11;101239.25;7404224;19;1954;-47
2023/08/13 01:14:18;;;;;;;;;;;;;;;24.91;58.11;101249.22;7403696;19;1601;-47
2023/08/13 01:16:47;;;;;;;;;;;;;;;24.92;57.90;101240.09;7405048;19;949;-47
2023/08/13 01:19:15;;;;;;;;;;;;;;;24.90;57.97;101242.97;7403149;19;1958;-48
2023/08/13 01:21:44;;;;;;;;;;;;;;;24.92;58.03;101240.94;7402516;19;1798;-47
2023/08/13 01:24:15;;;;;;;;;;;;;;;24.91;57.87;101235.69;7403368;19;1611;-47
2023/08/13 01:26:50;;;;;;;;;;;;;;;24.95;57.60;101253.31;7401653;19;1849;-47
2023/08/13 01:29:23;;;;;;;;;;;;;;;24.93;58.00;101250.75;7400728;19;1663;-47
2023/08/13 01:31:53;;;;;;;;;;;;;;;24.92;57.73;101257.16;7403920;19;1662;-47
2023/08/13 01:34:22;;;;;;;;;;;;;;;24.89;57.73;101257.50;7403065;19;1401;-47
2023/08/13 01:36:51;;;;;;;;;;;;;;;24.92;57.97;101250.91;7402364;19;1666;-47
2023/08/13 01:39:22;;;;;;;;;;;;;;;24.90;57.88;101242.97;7401216;19;1472;-49
2023/08/13 01:41:53;;;;;;;;;;;;;;;24.92;57.79;101242.81;7402317;19;1673;-47
2023/08/13 01:44:21;;;;;;;;;;;;;;;24.90;57.89;101251.06;7403221;19;1649;-47
2023/08/13 01:46:50;;;;;;;;;;;;;;;24.93;57.79;101253.47;7401454;19;1849;-47
2023/08/13 01:49:19;;;;;;;;;;;;;;;24.90;57.79;101240.25;7401800;19;1452;-47
2023/08/13 01:51:47;;;;;;;;;;;;;;;24.92;57.93;101240.94;7402493;19;1195;-47
2023/08/13 01:54:15;;;;;;;;;;;;;;;24.91;57.94;101252.78;7401591;19;1247;-47
2023/08/13 01:56:46;;;;;;;;;;;;;;;24.87;57.94;101240.59;7401066;19;1677;-47
2023/08/13 01:59:15;;;;;;;;;;;;;;;24.90;57.70;101255.66;7401180;19;1528;-47
2023/08/13 02:01:43;;;;;;;;;;;;;;;24.85;58.02;101245.31;7400774;19;1481;-48
2023/08/13 02:04:11;;;;;;;;;;;;;;;24.86;57.87;101243.47;7401899;19;1554;-48
2023/08/13 02:06:39;;;;;;;;;;;;;;;24.85;57.86;101239.91;7401376;19;1857;-47
2023/08/13 02:09:08;;;;;;;;;;;;;;;24.85;57.90;101256.16;7400806;19;1393;-47
2023/08/13 02:11:36;;;;;;;;;;;;;;;24.84;57.75;101251.72;7402139;19;1603;-47
2023/08/13 02:14:08;;;;;;;;;;;;;;;24.85;58.00;101241.75;7403017;19;1026;-47
2023/08/13 02:16:36;;;;;;;;;;;;;;;24.85;58.00;101253.44;7399936;19;1047;-47
2023/08/13 02:19:05;;;;;;;;;;;;;;;24.85;57.98;101248.03;7401530;19;1841;-47
2023/08/13 02:21:33;;;;;;;;;;;;;;;24.84;57.94;101254.44;7401812;19;1686;-47
2023/08/13 02:24:01;;;;;;;;;;;;;;;24.87;58.12;101251.41;7402116;19;1472;-47
2023/08/13 02:26:29;;;;;;;;;;;;;;;24.85;58.00;101256.16;7400039;19;1869;-47
2023/08/13 02:28:58;;;;;;;;;;;;;;;24.81;57.98;101241.25;7399772;19;1384;-47
2023/08/13 02:31:29;;;;;;;;;;;;;;;24.81;58.08;101257.47;7400175;19;1530;-48
2023/08/13 02:33:57;;;;;;;;;;;;;;;24.84;58.20;101254.44;7400117;19;1467;-48
2023/08/13 02:36:25;;;;;;;;;;;;;;;24.84;58.03;101254.44;7400273;19;1383;-47
2023/08/13 02:38:53;;;;;;;;;;;;;;;24.83;58.18;101265.41;7400266;19;1420;-47
2023/08/13 02:41:22;;;;;;;;;;;;;;;24.83;58.13;101257.28;7400527;19;1341;-48
2023/08/13 02:43:54;;;;;;;;;;;;;;;24.83;58.15;101263.56;7400709;19;1099;-47
2023/08/13 02:46:22;;;;;;;;;;;;;;;24.78;58.12;101249.69;7400029;19;1841;-47
2023/08/13 02:48:54;;;;;;;;;;;;;;;24.79;58.25;101256.78;7399939;19;1949;-47
2023/08/13 02:51:22;;;;;;;;;;;;;;;24.77;58.21;101253.38;7399969;19;1675;-47
2023/08/13 02:53:51;;;;;;;;;;;;;;;24.79;58.31;101262.22;7400719;19;1294;-47
2023/08/13 02:56:20;;;;;;;;;;;;;;;24.80;58.09;101269.28;7398253;19;1709;-47
2023/08/13 02:58:49;;;;;;;;;;;;;;;24.76;58.14;101257.94;7400093;19;1350;-47
2023/08/13 03:01:17;;;;;;;;;;;;;;;24.79;58.00;101265.75;7398285;19;1981;-47
2023/08/13 03:03:48;;;;;;;;;;;;;;;24.75;58.23;101267.09;7398578;19;1311;-47
2023/08/13 03:06:19;;;;;;;;;;;;;;;24.78;57.81;101276.72;7400163;19;1849;-47
2023/08/13 03:08:48;;;;;;;;;;;;;;;24.75;58.35;101277.03;7399955;19;1558;-47
2023/08/13 03:11:16;;;;;;;;;;;;;;;24.76;58.16;101294.97;7399196;19;1657;-47
2023/08/13 03:13:44;;;;;;;;;;;;;;;24.74;58.43;101275.34;7400335;19;1449;-48
2023/08/13 03:16:12;;;;;;;;;;;;;;;24.77;57.87;101277.72;7400503;19;949;-47
2023/08/13 03:18:41;;;;;;;;;;;;;;;24.74;57.90;101264.53;7400170;19;1051;-47
2023/08/13 03:21:09;;;;;;;;;;;;;;;24.76;58.25;101265.22;7398611;19;1524;-47
2023/08/13 03:23:40;;;;;;;;;;;;;;;24.79;58.06;101289.25;7397938;19;1708;-47
2023/08/13 03:26:08;;;;;;;;;;;;;;;24.77;58.08;101275.88;7399635;19;1855;-47
2023/08/13 03:28:36;;;;;;;;;;;;;;;24.77;58.06;101281.28;7398707;19;1959;-47
2023/08/13 03:31:05;;;;;;;;;;;;;;;24.79;58.06;101297.38;7399041;19;1736;-48
2023/08/13 03:33:33;;;;;;;;;;;;;;;24.77;58.09;101293.94;7398891;19;1607;-48
2023/08/13 03:36:01;;;;;;;;;;;;;;;24.76;58.15;101284.16;7398709;19;1582;-47
2023/08/13 03:38:30;;;;;;;;;;;;;;;24.75;58.16;101280.63;7399035;19;1654;-47
2023/08/13 03:41:01;;;;;;;;;;;;;;;24.76;58.16;101273.34;7397674;19;1491;-47
2023/08/13 03:43:29;;;;;;;;;;;;;;;24.76;58.14;101263.34;7398092;19;1658;-47
2023/08/13 03:46:00;;;;;;;;;;;;;;;24.78;58.04;101276.72;7395452;19;1843;-47
2023/08/13 03:48:29;;;;;;;;;;;;;;;24.77;58.18;101280.44;7397940;19;1438;-47
2023/08/13 03:50:57;;;;;;;;;;;;;;;24.75;58.10;101283.31;7399345;19;1067;-49
2023/08/13 03:53:26;;;;;;;;;;;;;;;24.76;58.20;101284.16;7396317;19;1565;-47
2023/08/13 03:55:54;;;;;;;;;;;;;;;24.81;58.16;101295.34;7397160;19;1443;-47
2023/08/13 03:58:26;;;;;;;;;;;;;;;24.78;57.83;101291.09;7397702;19;1847;-47
2023/08/13 04:00:54;;;;;;;;;;;;;;;24.81;57.95;101298.06;7396822;19;1368;-47
2023/08/13 04:03:22;;;;;;;;;;;;;;;24.85;57.74;101299.44;7398753;19;1048;-47
2023/08/13 04:05:50;;;;;;;;;;;;;;;24.88;57.67;101293.69;7398044;19;1645;-47
2023/08/13 04:08:19;;;;;;;;;;;;;;;24.92;57.61;101300.47;7395698;19;1882;-47
2023/08/13 04:10:47;;;;;;;;;;;;;;;24.90;57.39;101286.25;7397169;19;1393;-47
2023/08/13 04:13:15;;;;;;;;;;;;;;;24.91;57.63;101293.38;7397533;19;1353;-47
2023/08/13 04:15:46;;;;;;;;;;;;;;;24.97;57.57;101291.88;7398294;19;1622;-47
2023/08/13 04:18:14;;;;;;;;;;;;;;;25.02;57.20;101290.34;7397219;19;1586;-47
2023/08/13 04:20:43;;;;;;;;;;;;;;;25.06;57.51;101298.16;7394594;19;1406;-47
2023/08/13 04:23:11;;;;;;;;;;;;;;;25.10;57.19;101297.66;7397421;19;1566;-47
2023/08/13 04:25:39;;;;;;;;;;;;;;;25.15;57.25;101313.44;7395344;19;1500;-48
2023/08/13 04:28:08;;;;;;;;;;;;;;;25.20;57.10;101302.94;7395200;19;1826;-47
2023/08/13 04:30:36;;;;;;;;;;;;;;;25.27;56.73;101312.16;7394227;19;1468;-47
2023/08/13 04:33:07;;;;;;;;;;;;;;;25.35;56.24;101317.59;7395994;19;1467;-47
2023/08/13 04:35:35;;;;;;;;;;;;;;;25.43;56.22;101318.59;7398564;19;1007;-47
2023/08/13 04:38:04;;;;;;;;;;;;;;;25.49;56.11;101318.81;7397906;19;1013;-47
2023/08/13 04:40:32;;;;;;;;;;;;;;;25.62;55.74;101318.31;7395338;19;1607;-47
2023/08/13 04:43:00;;;;;;;;;;;;;;;25.75;55.52;101324.13;7396311;19;1631;-47
2023/08/13 04:45:29;;;;;;;;;;;;;;;25.78;55.38;101315.66;7394584;19;1328;-47
2023/08/13 04:47:57;;;;;;;;;;;;;;;25.80;55.14;101321.75;7394704;19;1818;-47
2023/08/13 04:50:28;;;;;;;;;;;;;;;25.76;55.44;101320.38;7395732;19;1324;-47
2023/08/13 04:52:56;;;;;;;;;;;;;;;25.76;55.22;101314.94;7394760;19;1237;-47
2023/08/13 04:55:24;;;;;;;;;;;;;;;25.77;55.45;101321.25;7395633;19;1443;-47
2023/08/13 04:57:52;;;;;;;;;;;;;;;25.72;55.68;101327.13;7396011;19;1384;-47
2023/08/13 05:00:21;;;;;;;;;;;;;;;25.68;55.76;101333.06;7397120;19;1271;-47
2023/08/13 05:02:49;;;;;;;;;;;;;;;25.59;55.91;101322.22;7397535;19;991;-47
2023/08/13 05:05:17;;;;;;;;;;;;;;;25.56;55.80;101333.38;7396176;19;1694;-48
2023/08/13 05:07:48;;;;;;;;;;;;;;;25.43;55.98;101332.16;7394863;19;1852;-48
2023/08/13 05:10:16;;;;;;;;;;;;;;;25.39;56.42;101324.38;7395637;19;1572;-48
2023/08/13 05:12:45;;;;;;;;;;;;;;;25.34;56.38;101329.41;7395736;19;1657;-48
2023/08/13 05:15:13;;;;;;;;;;;;;;;25.27;56.96;101331.09;7395868;19;1442;-47
2023/08/13 05:17:41;;;;;;;;;;;;;;;25.17;57.09;101328.50;7394556;19;1585;-47
2023/08/13 05:20:10;;;;;;;;;;;;;;;25.02;57.38;101328.22;7390942;19;1465;-47
2023/08/13 05:22:38;;;;;;;;;;;;;;;24.97;57.80;101340.59;7394148;19;1511;-47
2023/08/13 05:25:10;;;;;;;;;;;;;;;24.90;57.86;101334.94;7396094;19;1570;-47
2023/08/13 05:27:38;;;;;;;;;;;;;;;24.88;57.98;101326.16;7394576;19;1845;-47
2023/08/13 05:30:07;;;;;;;;;;;;;;;24.91;57.72;101336.66;7395391;19;1268;-46
2023/08/13 05:32:36;;;;;;;;;;;;;;;24.84;58.28;101324.78;7393973;19;1712;-47
2023/08/13 05:35:04;;;;;;;;;;;;;;;24.89;57.91;101330.56;7394325;19;1219;-47
2023/08/13 05:37:33;;;;;;;;;;;;;;;24.86;58.18;101328.16;7395150;19;1329;-47
2023/08/13 05:40:01;;;;;;;;;;;;;;;24.90;58.11;101328.69;7394849;19;1428;-47
2023/08/13 05:42:32;;;;;;;;;;;;;;;24.89;58.16;101325.16;7394365;19;1407;-47
2023/08/13 05:45:00;;;;;;;;;;;;;;;24.88;58.22;101334.25;7393911;19;1262;-47
2023/08/13 05:47:29;;;;;;;;;;;;;;;24.87;58.06;101329.00;7392237;19;1855;-47
2023/08/13 05:49:57;;;;;;;;;;;;;;;24.88;57.96;101330.72;7392857;19;1234;-47
2023/08/13 05:52:25;;;;;;;;;;;;;;;24.87;58.34;101329.88;7402119;19;1336;-47
2023/08/13 05:54:53;;;;;;;;;;;;;;;24.88;57.93;101315.31;7402337;19;1106;-47
2023/08/13 05:57:22;;;;;;;;;;;;;;;24.87;58.02;101327.16;7399589;19;1385;-47
2023/08/13 05:59:53;;;;;;;;;;;;;;;24.86;58.13;101322.75;7401780;19;1425;-48
2023/08/13 06:02:21;;;;;;;;;;;;;;;24.87;57.98;101324.47;7401928;19;1586;-47
2023/08/13 06:04:49;;;;;;;;;;;;;;;24.89;58.40;101322.44;7402232;19;1595;-47
2023/08/13 06:07:17;;;;;;;;;;;;;;;24.86;58.06;101328.16;7400126;19;1859;-47
2023/08/13 06:09:46;;;;;;;;;;;;;;;24.89;58.45;101333.25;7400460;19;1398;-47
2023/08/13 06:12:14;;;;;;;;;;;;;;;24.90;58.31;101329.53;7401363;19;1657;-47
2023/08/13 06:14:42;;;;;;;;;;;;;;;24.92;58.27;101337.50;7401596;19;1489;-47
2023/08/13 06:17:13;;;;;;;;;;;;;;;24.92;58.36;101338.34;7400830;19;1645;-47
2023/08/13 06:19:42;;;;;;;;;;;;;;;24.91;58.35;101336.66;7401863;19;1403;-47
2023/08/13 06:22:10;;;;;;;;;;;;;;;24.95;57.98;101346.16;7402158;19;1050;-47
2023/08/13 06:24:39;;;;;;;;;;;;;;;24.94;58.32;101327.34;7401054;19;1659;-47
2023/08/13 06:27:07;;;;;;;;;;;;;;;24.95;58.26;101346.16;7397410;19;1842;-47
2023/08/13 06:29:35;;;;;;;;;;;;;;;24.95;58.35;101340.72;7401236;19;1436;-47
2023/08/13 06:32:03;;;;;;;;;;;;;;;24.95;58.14;101345.31;7401643;19;941;-47
2023/08/13 06:34:34;;;;;;;;;;;;;;;24.94;58.14;101341.72;7399625;19;1674;-47
2023/08/13 06:37:03;;;;;;;;;;;;;;;24.97;58.49;101336.00;7397627;19;1469;-47
2023/08/13 06:39:32;;;;;;;;;;;;;;;24.97;58.31;101338.72;7399760;19;1567;-47
2023/08/13 06:42:01;;;;;;;;;;;;;;;24.97;58.33;101338.72;7401285;19;1511;-47
2023/08/13 06:44:29;;;;;;;;;;;;;;;24.99;58.39;101350.22;7400181;19;1403;-47
2023/08/13 06:46:58;;;;;;;;;;;;;;;24.99;58.19;101344.81;7400471;19;1511;-47
2023/08/13 06:49:26;;;;;;;;;;;;;;;24.98;58.39;101337.69;7400703;19;1665;-47
2023/08/13 06:51:57;;;;;;;;;;;;;;;24.99;58.19;101334.00;7401319;19;1014;-48
2023/08/13 06:54:25;;;;;;;;;;;;;;;24.98;58.26;101331.44;7400615;19;1717;-47
2023/08/13 06:56:54;;;;;;;;;;;;;;;25.00;58.17;101337.53;7398785;19;1787;-47
2023/08/13 06:59:23;;;;;;;;;;;;;;;24.98;58.16;101328.72;7400897;19;1395;-47
2023/08/13 07:01:51;;;;;;;;;;;;;;;24.99;58.13;101323.16;7398310;19;1333;-47
2023/08/13 07:04:20;;;;;;;;;;;;;;;25.04;58.03;101319.13;7399253;19;1250;-48
2023/08/13 07:06:48;;;;;;;;;;;;;;;25.03;58.06;101323.69;7399729;19;1239;-47
2023/08/13 07:09:19;;;;;;;;;;;;;;;25.01;58.02;101314.88;7397455;19;1837;-47
2023/08/13 07:11:47;;;;;;;;;;;;;;;25.04;57.94;101316.41;7396590;19;1573;-47
2023/08/13 07:14:15;;;;;;;;;;;;;;;25.07;58.05;101310.66;7399652;19;1328;-47
2023/08/13 07:16:44;;;;;;;;;;;;;;;25.02;57.90;101306.59;7398645;19;1787;-47
2023/08/13 07:19:12;;;;;;;;;;;;;;;25.04;58.18;101316.41;7399396;19;1634;-47
2023/08/13 07:21:41;;;;;;;;;;;;;;;25.00;58.37;101303.19;7400246;19;1109;-47
2023/08/13 07:24:09;;;;;;;;;;;;;;;25.04;58.29;101314.56;7398690;19;1838;-47
2023/08/13 07:26:40;;;;;;;;;;;;;;;25.04;58.13;101324.53;7400211;19;1492;-47
2023/08/13 07:29:09;;;;;;;;;;;;;;;25.05;57.95;101307.28;7397661;19;1864;-47
2023/08/13 07:31:37;;;;;;;;;;;;;;;25.06;58.18;101317.09;7400027;19;1138;-47
2023/08/13 07:34:05;;;;;;;;;;;;;;;25.08;58.35;101307.81;7397090;19;1619;-47
2023/08/13 07:36:34;;;;;;;;;;;;;;;25.08;58.09;101309.66;7397062;19;1428;-47
2023/08/13 07:39:02;;;;;;;;;;;;;;;25.10;58.03;101302.22;7398294;19;1360;-47
2023/08/13 07:41:30;;;;;;;;;;;;;;;25.07;58.04;101303.41;7397576;19;1259;-47
2023/08/13 07:44:01;;;;;;;;;;;;;;;25.10;57.95;101313.91;7398162;19;1248;-47
2023/08/13 07:46:29;;;;;;;;;;;;;;;25.10;58.21;101304.94;7398108;19;1232;-47
2023/08/13 07:48:58;;;;;;;;;;;;;;;25.10;57.97;101307.66;7397403;19;1847;-47
2023/08/13 07:51:26;;;;;;;;;;;;;;;25.12;57.90;101305.63;7399200;19;1037;-47
2023/08/13 07:53:54;;;;;;;;;;;;;;;25.11;58.15;101310.19;7397961;19;1487;-48
2023/08/13 07:56:22;;;;;;;;;;;;;;;25.11;58.30;101301.22;7396875;19;1201;-47
2023/08/13 07:58:52;;;;;;;;;;;;;;;25.08;58.33;101309.66;7398461;19;1336;-47
2023/08/13 08:01:23;;;;;;;;;;;;;;;25.11;57.99;101309.31;7399796;19;1270;-48
2023/08/13 08:03:51;;;;;;;;;;;;;;;25.10;58.09;101296.81;7397991;19;1179;-47
2023/08/13 08:06:19;;;;;;;;;;;;;;;25.10;58.17;101303.06;7398146;19;1207;-47
2023/08/13 08:08:48;;;;;;;;;;;;;;;25.12;58.27;101311.88;7397513;19;1849;-47
2023/08/13 08:11:16;;;;;;;;;;;;;;;25.12;58.09;101305.63;7398082;19;1451;-48
2023/08/13 08:13:45;;;;;;;;;;;;;;;25.11;58.17;101309.31;7395744;19;1353;-48
2023/08/13 08:16:13;;;;;;;;;;;;;;;25.12;58.22;101306.47;7396537;19;1404;-47
2023/08/13 08:18:44;;;;;;;;;;;;;;;25.14;58.37;101299.03;7397053;19;1284;-48
2023/08/13 08:21:13;;;;;;;;;;;;;;;25.10;58.27;101303.06;7397332;19;1211;-47
2023/08/13 08:23:41;;;;;;;;;;;;;;;25.09;58.25;101300.53;7396263;19;1255;-47
2023/08/13 08:26:10;;;;;;;;;;;;;;;25.09;58.25;101297.81;7399062;19;1479;-48
2023/08/13 08:28:38;;;;;;;;;;;;;;;25.09;58.37;101298.69;7397986;19;1869;-47
2023/08/13 08:31:06;;;;;;;;;;;;;;;25.08;58.15;101282.59;7396988;19;1615;-47
2023/08/13 08:33:35;;;;;;;;;;;;;;;25.08;58.24;101291.56;7396301;19;1496;-47
2023/08/13 08:36:05;;;;;;;;;;;;;;;25.10;58.28;101286.00;7395749;19;1631;-47
2023/08/13 08:38:34;;;;;;;;;;;;;;;25.11;58.32;101276.84;7399130;19;978;-47
2023/08/13 08:41:03;;;;;;;;;;;;;;;25.12;58.16;101283.97;7398358;19;1717;-47
2023/08/13 08:43:32;;;;;;;;;;;;;;;25.13;57.93;101286.53;7397876;19;1701;-47
2023/08/13 08:46:00;;;;;;;;;;;;;;;25.15;58.12;101289.91;7392609;19;1771;-48
2023/08/13 08:48:29;;;;;;;;;;;;;;;25.13;57.92;101273.00;7396858;19;1848;-48
2023/08/13 08:50:58;;;;;;;;;;;;;;;25.18;58.12;101280.59;7396759;19;1846;-48
2023/08/13 08:53:30;;;;;;;;;;;;;;;25.13;58.19;101280.28;7395208;19;1959;-49
2023/08/13 08:55:58;;;;;;;;;;;;;;;25.12;58.23;101278.56;7394057;19;1846;-49
2023/08/13 08:58:27;;;;;;;;;;;;;;;25.13;58.39;101270.28;7394818;19;1291;-48
2023/08/13 09:01:00;;;;;;;;;;;;;;;25.13;58.09;101280.28;7395763;19;1827;-48
2023/08/13 09:03:28;;;;;;;;;;;;;;;25.10;58.04;101267.06;7396183;19;1391;-49
2023/08/13 09:05:57;;;;;;;;;;;;;;;25.13;58.09;101288.38;7395345;19;1986;-48
2023/08/13 09:08:25;;;;;;;;;;;;;;;25.15;58.33;101272.84;7394862;19;1833;-49
2023/08/13 09:10:58;;;;;;;;;;;;;;;25.14;58.07;101260.31;7396857;19;1473;-48
2023/08/13 09:13:26;;;;;;;;;;;;;;;25.14;58.20;101276.53;7395645;19;1382;-49
2023/08/13 09:15:56;;;;;;;;;;;;;;;24.73;58.12;101198.78;7395535;19;1497;-47
2023/08/13 09:18:25;;;;;;;;;;;;;;;25.13;58.15;101270.28;7396458;19;1672;-49
2023/08/13 09:20:53;;;;;;;;;;;;;;;25.14;58.47;101265.72;7397034;19;1130;-49
2023/08/13 09:23:25;;;;;;;;;;;;;;;25.15;58.32;101248.47;7394379;19;1717;-48
2023/08/13 09:25:54;;;;;;;;;;;;;;;25.13;58.35;101264.03;7399346;19;1008;-47
2023/08/13 09:28:25;;;;;;;;;;;;;;;25.11;58.40;101260.63;7402441;19;1854;-50
2023/08/13 09:30:53;;;;;;;;;;;;;;;25.10;58.21;101253.53;7403603;19;1508;-47
2023/08/13 09:33:22;;;;;;;;;;;;;;;25.12;58.25;101246.94;7403791;19;1117;-48
2023/08/13 09:35:50;;;;;;;;;;;;;;;25.11;58.29;101230.84;7402538;19;1690;-49
2023/08/13 09:38:18;;;;;;;;;;;;;;;25.12;58.45;101235.25;7401828;19;1434;-48
2023/08/13 09:40:47;;;;;;;;;;;;;;;25.11;58.28;101239.84;7402515;19;1300;-49
2023/08/13 09:43:18;;;;;;;;;;;;;;;25.12;58.14;101235.25;7402482;19;1454;-49
2023/08/13 09:45:50;;;;;;;;;;;;;;;25.09;58.68;101232.88;7401581;19;1384;-48
2023/08/13 09:48:21;;;;;;;;;;;;;;;25.10;58.60;101248.94;7401590;19;1825;-47
2023/08/13 09:50:51;;;;;;;;;;;;;;;25.10;58.56;101251.66;7401465;19;1211;-49
2023/08/13 09:53:20;;;;;;;;;;;;;;;25.08;58.28;101237.44;7401394;19;1166;-49
2023/08/13 09:55:51;;;;;;;;;;;;;;;25.09;58.31;101228.31;7400155;19;1595;-49
2023/08/13 09:58:20;;;;;;;;;;;;;;;25.10;58.47;101243.53;7402579;19;1493;-49
2023/08/13 10:00:52;;;;;;;;;;;;;;;25.11;58.41;101230.84;7402778;19;996;-49
2023/08/13 10:03:20;;;;;;;;;;;;;;;25.09;58.30;101233.75;7400609;19;1799;-48
2023/08/13 10:05:49;;;;;;;;;;;;;;;25.09;58.51;101222.91;7397904;19;1398;-49
2023/08/13 10:08:18;;;;;;;;;;;;;;;25.11;58.35;101238.97;7400405;19;1844;-48
2023/08/13 10:10:46;;;;;;;;;;;;;;;25.08;58.53;101252.84;7402348;19;1453;-48
2023/08/13 10:13:15;;;;;;;;;;;;;;;25.09;58.68;101228.31;7401739;19;1601;-48
2023/08/13 10:15:44;;;;;;;;;;;;;;;25.12;58.56;101240.66;7401692;19;1579;-50
2023/08/13 10:18:15;;;;;;;;;;;;;;;25.08;58.68;101229.31;7401250;19;1465;-49
2023/08/13 10:20:46;;;;;;;;;;;;;;;25.10;58.42;101231.88;7402727;19;1015;-48
2023/08/13 10:23:14;;;;;;;;;;;;;;;25.08;58.85;101232.03;7398993;19;1700;-49
2023/08/13 10:25:44;;;;;;;;;;;;;;;25.08;58.42;101218.50;7400901;19;1391;-48
2023/08/13 10:28:22;;;;;;;;;;;;;;;25.09;58.71;101225.63;7401223;19;1840;-49
2023/08/13 10:30:51;;;;;;;;;;;;;;;25.09;58.46;101224.75;7402351;19;1106;-47
2023/08/13 10:33:21;;;;;;;;;;;;;;;25.08;58.43;101212.25;7399505;19;1686;-47
2023/08/13 10:36:00;;;;;;;;;;;;;;;25.09;58.70;101224.75;7401252;19;1026;-47
2023/08/13 10:38:35;;;;;;;;;;;;;;;25.11;58.63;101217.31;7400865;19;1031;-47
2023/08/13 10:41:03;;;;;;;;;;;;;;;25.08;58.72;101213.09;7401688;19;1102;-47
2023/08/13 10:43:32;;;;;;;;;;;;;;;25.07;58.48;101200.59;7399019;19;3062;-47
2023/08/13 10:46:00;;;;;;;;;;;;;;;25.08;58.77;101204.13;7400488;19;1713;-47
2023/08/13 10:48:32;;;;;;;;;;;;;;;25.08;58.76;101206.84;7400165;19;1853;-48
2023/08/13 10:51:00;;;;;;;;;;;;;;;25.07;58.61;101200.59;7401248;19;1398;-48
2023/08/13 10:53:29;;;;;;;;;;;;;;;25.07;59.00;101199.72;7398823;19;1693;-47
2023/08/13 10:55:59;;;;;;;;;;;;;;;25.08;58.96;101202.25;7398370;19;1578;-47
2023/08/13 10:58:28;;;;;;;;;;;;;;;25.07;58.97;101200.59;7398977;19;1632;-47
2023/08/13 11:01:00;;;;;;;;;;;;;;;25.09;58.78;101193.16;7401647;19;944;-47
2023/08/13 11:03:31;;;;;;;;;;;;;;;25.08;58.56;101190.59;7399056;19;1808;-48
2023/08/13 11:05:59;;;;;;;;;;;;;;;25.09;58.62;101181.44;7398120;19;1473;-47
2023/08/13 11:08:28;;;;;;;;;;;;;;;25.08;58.83;101198.72;7399253;19;1838;-47
2023/08/13 11:10:57;;;;;;;;;;;;;;;25.08;58.59;101194.16;7400630;19;1414;-47
2023/08/13 11:13:25;;;;;;;;;;;;;;;25.10;58.86;101194.00;7400222;19;1422;-47
2023/08/13 11:15:54;;;;;;;;;;;;;;;25.09;58.98;101187.75;7399730;19;1371;-47
2023/08/13 11:18:23;;;;;;;;;;;;;;;25.12;58.69;101187.38;7399778;19;1590;-47
2023/08/13 11:20:54;;;;;;;;;;;;;;;25.10;58.79;101191.28;7400717;19;1117;-47
2023/08/13 11:23:24;;;;;;;;;;;;;;;25.10;58.97;101183.16;7396352;19;1788;-48
2023/08/13 11:25:52;;;;;;;;;;;;;;;25.10;59.02;101177.75;7398598;19;1694;-48
2023/08/13 11:28:21;;;;;;;;;;;;;;;25.10;58.84;101177.75;7399650;19;1494;-48
2023/08/13 11:30:50;;;;;;;;;;;;;;;25.11;58.97;101165.91;7398350;19;1843;-49
2023/08/13 11:33:19;;;;;;;;;;;;;;;25.14;58.83;101184.53;7397644;19;1595;-48
2023/08/13 11:35:47;;;;;;;;;;;;;;;25.10;58.93;101150.69;7398311;19;1603;-48
2023/08/13 11:38:18;;;;;;;;;;;;;;;25.10;58.87;101159.66;7399145;19;1374;-48
2023/08/13 11:40:47;;;;;;;;;;;;;;;25.12;58.91;101170.31;7398888;19;1397;-48
2023/08/13 11:43:16;;;;;;;;;;;;;;;25.14;58.77;101162.88;7398877;19;1652;-49
2023/08/13 11:45:44;;;;;;;;;;;;;;;25.09;58.60;101147.16;7398916;19;1449;-49
2023/08/13 11:48:14;;;;;;;;;;;;;;;25.11;58.88;101160.47;7397825;19;1565;-49
2023/08/13 11:50:44;;;;;;;;;;;;;;;25.12;58.94;101160.31;7397927;19;1830;-50
2023/08/13 11:53:13;;;;;;;;;;;;;;;25.10;58.90;101158.81;7397022;19;1768;-48
2023/08/13 11:55:44;;;;;;;;;;;;;;;25.11;58.95;101150.53;7398705;19;1651;-48
2023/08/13 11:58:13;;;;;;;;;;;;;;;25.11;59.02;101152.38;7398089;19;1163;-47
2023/08/13 12:00:41;;;;;;;;;;;;;;;25.10;58.92;101148.81;7396700;19;1100;-49
2023/08/13 12:03:10;;;;;;;;;;;;;;;25.12;58.68;101148.66;7398219;19;1332;-48
2023/08/13 12:05:39;;;;;;;;;;;;;;;25.12;59.05;101149.50;7397388;19;1359;-47
2023/08/13 12:08:09;;;;;;;;;;;;;;;25.09;59.08;101149.84;7396916;19;1385;-48
2023/08/13 12:10:38;;;;;;;;;;;;;;;25.11;58.90;101157.78;7396102;19;1842;-49
2023/08/13 12:13:09;;;;;;;;;;;;;;;25.12;59.07;101149.50;7397800;19;1468;-48
2023/08/13 12:15:37;;;;;;;;;;;;;;;25.09;59.05;101143.56;7397129;19;1180;-48
2023/08/13 12:18:06;;;;;;;;;;;;;;;25.09;59.15;101143.56;7396670;19;1198;-49
2023/08/13 12:20:34;;;;;;;;;;;;;;;25.08;58.92;101147.31;7396939;19;1230;-47
2023/08/13 12:23:02;;;;;;;;;;;;;;;25.11;59.05;101152.38;7396492;19;1443;-48
2023/08/13 12:25:31;;;;;;;;;;;;;;;25.09;58.98;101128.19;7397364;19;1178;-49
2023/08/13 12:27:59;;;;;;;;;;;;;;;25.10;58.97;101142.56;7396360;19;1402;-49
2023/08/13 12:30:30;;;;;;;;;;;;;;;25.08;58.92;101131.91;7395690;19;1833;-48
2023/08/13 12:32:59;;;;;;;;;;;;;;;25.10;59.19;101127.16;7397156;19;1353;-48
2023/08/13 12:35:27;;;;;;;;;;;;;;;25.11;59.09;101128.00;7396244;19;1060;-48
2023/08/13 12:37:55;;;;;;;;;;;;;;;25.11;58.94;101125.31;7395946;19;1218;-48
2023/08/13 12:40:24;;;;;;;;;;;;;;;25.10;59.01;101118.22;7396804;19;1388;-47
2023/08/13 12:42:52;;;;;;;;;;;;;;;25.11;58.86;101133.41;7396673;19;1356;-47
2023/08/13 12:45:20;;;;;;;;;;;;;;;25.10;59.08;101120.91;7396872;19;1171;-49
2023/08/13 12:47:51;;;;;;;;;;;;;;;25.07;58.83;101099.59;7396095;19;1324;-48
2023/08/13 12:50:20;;;;;;;;;;;;;;;25.10;59.06;101104.69;7395902;19;1849;-48
2023/08/13 12:52:48;;;;;;;;;;;;;;;25.10;59.09;101110.94;7395186;19;1594;-48
2023/08/13 12:55:16;;;;;;;;;;;;;;;25.13;59.25;101113.31;7396583;19;1477;-49
2023/08/13 12:57:44;;;;;;;;;;;;;;;25.13;58.88;101112.47;7394751;19;1484;-48